Terminal Aerodrome Forecast
Issued by NWS Sioux Falls, SD

Home | Current Version | Previous Version | Graphics & Text | Print | Product List | Glossary On
Versions: 1 2 3 4 5 6 7 8 9 10 11 12 13 14
000
FTUS43 KFSD 032202 AAA
TAFFSD
TAF AMD
KFSD 032202Z 0322/0418 34023G32KT 5SM BLSN BKN018
     FM032330 32018G26KT P6SM SCT020 BKN150
     FM040100 31009KT P6SM SCT040 SCT200=

USA.gov is the U.S. government's official web portal to all federal, state and local government web resources and services.